createdAt,value
2018-09-30T00:00:32.961Z,2.60
2018-09-30T00:03:00.502Z,1.00
2018-09-30T00:05:29.259Z,2.20
2018-09-30T00:07:57.266Z,1.00
2018-09-30T00:10:24.789Z,3.00
2018-09-30T00:12:52.312Z,3.00
2018-09-30T00:15:21.180Z,3.00
2018-09-30T00:17:49.610Z,1.00
2018-09-30T00:20:17.207Z,1.00
2018-09-30T00:22:45.115Z,1.00
2018-09-30T00:25:19.111Z,1.40
2018-09-30T00:27:46.671Z,1.00
2018-09-30T00:30:14.622Z,1.00
2018-09-30T00:32:42.184Z,2.20
2018-09-30T00:35:10.579Z,1.00
2018-09-30T00:37:38.480Z,2.20
2018-09-30T00:40:06.094Z,1.00
2018-09-30T00:42:33.645Z,1.40
2018-09-30T00:45:01.660Z,1.00
2018-09-30T00:47:29.208Z,1.00
2018-09-30T00:49:56.738Z,0.80
2018-09-30T00:52:25.636Z,1.00
2018-09-30T00:54:54.891Z,0.40
2018-09-30T00:57:22.489Z,0.20
2018-09-30T00:59:50.450Z,0.00
2018-09-30T01:02:18.938Z,0.00
2018-09-30T01:04:46.495Z,1.00
2018-09-30T01:07:14.504Z,1.00
2018-09-30T01:09:42.096Z,0.60
2018-09-30T01:12:09.650Z,0.20
2018-09-30T01:14:37.665Z,0.00
2018-09-30T01:17:05.201Z,0.00
2018-09-30T01:19:32.775Z,0.80
2018-09-30T01:22:01.438Z,0.00
2018-09-30T01:24:29.018Z,1.00
2018-09-30T01:26:56.631Z,0.00
2018-09-30T01:29:24.662Z,1.00
2018-09-30T01:31:52.207Z,1.00
2018-09-30T01:34:20.356Z,3.00
2018-09-30T01:36:48.265Z,0.00
2018-09-30T01:39:15.849Z,1.00
2018-09-30T01:41:43.400Z,1.00
2018-09-30T01:44:11.428Z,1.00
2018-09-30T01:46:39.007Z,0.20
2018-09-30T01:49:06.607Z,1.00
2018-09-30T01:51:34.628Z,1.00
2018-09-30T01:54:02.185Z,0.40
2018-09-30T01:56:29.750Z,0.00
2018-09-30T01:58:57.597Z,1.00
2018-09-30T02:01:25.995Z,0.40
2018-09-30T02:03:53.580Z,1.00
2018-09-30T02:06:22.394Z,0.40
2018-09-30T02:08:50.348Z,0.80
2018-09-30T02:11:18.008Z,1.00
2018-09-30T02:13:45.546Z,0.00
2018-09-30T02:16:13.151Z,1.00
2018-09-30T02:18:40.766Z,1.80
2018-09-30T02:21:08.677Z,1.80
2018-09-30T02:23:36.832Z,1.00
2018-09-30T02:26:04.506Z,0.60
2018-09-30T02:28:32.086Z,1.00
2018-09-30T02:31:00.100Z,0.00
2018-09-30T02:33:27.696Z,0.00
2018-09-30T02:35:56.336Z,2.60
2018-09-30T02:38:23.908Z,0.40
2018-09-30T02:40:52.293Z,0.60
2018-09-30T02:43:20.921Z,1.00
2018-09-30T02:45:48.498Z,0.80
2018-09-30T02:48:16.158Z,1.40
2018-09-30T02:50:43.723Z,1.00
2018-09-30T02:53:12.600Z,0.80
2018-09-30T02:55:40.435Z,1.00
2018-09-30T02:58:10.907Z,0.40
2018-09-30T03:00:38.495Z,1.00
2018-09-30T03:03:06.470Z,0.00
2018-09-30T03:05:35.864Z,1.40
2018-09-30T03:08:08.493Z,0.00
2018-09-30T03:10:36.103Z,1.00
2018-09-30T03:13:04.103Z,1.00
2018-09-30T03:15:32.313Z,0.60
2018-09-30T03:17:59.937Z,0.40
2018-09-30T03:20:28.409Z,2.20
2018-09-30T03:22:56.758Z,0.40
2018-09-30T03:25:25.266Z,0.00
2018-09-30T03:27:53.784Z,0.00
2018-09-30T03:30:24.538Z,0.60
2018-09-30T03:32:53.296Z,1.00
2018-09-30T03:35:21.451Z,0.00
2018-09-30T03:37:50.972Z,0.60
2018-09-30T03:40:20.667Z,0.60
2018-09-30T03:42:48.501Z,0.20
2018-09-30T03:45:16.103Z,0.80
2018-09-30T03:47:45.211Z,0.60
2018-09-30T03:50:13.811Z,0.00
2018-09-30T03:52:42.410Z,1.00
2018-09-30T03:55:10.514Z,0.00
2018-09-30T03:57:41.457Z,1.00
2018-09-30T04:00:11.048Z,1.00
2018-09-30T04:02:38.669Z,1.00
2018-09-30T04:05:08.715Z,1.00
2018-09-30T04:07:37.901Z,0.80
2018-09-30T04:10:05.595Z,0.40
2018-09-30T04:12:33.355Z,1.00
2018-09-30T04:15:04.873Z,0.00
2018-09-30T04:17:32.499Z,1.00
2018-09-30T04:20:00.018Z,1.00
2018-09-30T04:22:29.418Z,1.00
2018-09-30T04:24:56.980Z,1.00
2018-09-30T04:27:25.289Z,1.00
2018-09-30T04:29:53.065Z,1.00
2018-09-30T04:32:27.144Z,1.00
2018-09-30T04:34:54.767Z,1.00
2018-09-30T04:37:22.522Z,1.00
2018-09-30T04:39:50.099Z,0.00
2018-09-30T04:42:18.554Z,0.40
2018-09-30T04:44:46.110Z,0.60
2018-09-30T04:47:13.655Z,0.00
2018-09-30T04:49:42.682Z,3.00
2018-09-30T04:52:11.237Z,2.20
2018-09-30T04:54:39.796Z,0.00
2018-09-30T04:57:07.794Z,0.20
2018-09-30T04:59:35.932Z,0.80
2018-09-30T05:02:04.200Z,0.40
2018-09-30T05:04:31.751Z,1.40
2018-09-30T05:06:59.755Z,1.00
2018-09-30T05:09:28.365Z,0.00
2018-09-30T05:11:56.850Z,1.00
2018-09-30T05:14:25.277Z,0.00
2018-09-30T05:16:52.879Z,1.00
2018-09-30T05:19:21.386Z,0.40
2018-09-30T05:21:48.920Z,1.00
2018-09-30T05:24:16.804Z,0.80
2018-09-30T05:26:46.098Z,0.60
2018-09-30T05:29:13.660Z,1.00
2018-09-30T05:31:41.350Z,0.80
2018-09-30T05:34:09.265Z,0.40
2018-09-30T05:36:36.804Z,1.00
2018-09-30T05:39:06.458Z,1.00
2018-09-30T05:41:34.958Z,0.80
2018-09-30T05:44:03.365Z,0.00
2018-09-30T05:46:32.049Z,1.00
2018-09-30T05:48:59.868Z,1.40
2018-09-30T05:51:27.467Z,1.00
2018-09-30T05:53:56.526Z,1.40
2018-09-30T05:56:25.475Z,1.40
2018-09-30T05:58:53.262Z,1.00
2018-09-30T06:01:20.844Z,0.00
2018-09-30T06:03:50.631Z,1.80
2018-09-30T06:06:18.228Z,1.00
2018-09-30T06:08:46.395Z,0.60
2018-09-30T06:11:14.292Z,1.80
2018-09-30T06:13:44.359Z,0.80
2018-09-30T06:16:12.656Z,1.00
2018-09-30T06:18:41.403Z,0.00
2018-09-30T06:21:09.807Z,0.60
2018-09-30T06:23:37.371Z,1.00
2018-09-30T06:26:07.214Z,0.60
2018-09-30T06:28:36.481Z,1.00
2018-09-30T06:31:04.039Z,0.60
2018-09-30T06:33:31.658Z,2.20
2018-09-30T06:36:01.114Z,1.00
2018-09-30T06:38:28.675Z,1.40
2018-09-30T06:40:56.715Z,0.20
2018-09-30T06:43:24.303Z,2.60
2018-09-30T06:45:52.297Z,1.00
2018-09-30T06:48:19.894Z,1.80
2018-09-30T06:50:47.852Z,0.20
2018-09-30T06:53:15.818Z,3.00
2018-09-30T06:55:46.227Z,1.00
2018-09-30T06:58:13.806Z,2.60
2018-09-30T07:00:42.785Z,2.60
2018-09-30T07:03:12.232Z,4.20
2018-09-30T07:05:40.378Z,1.80
2018-09-30T07:08:07.973Z,3.60
2018-09-30T07:10:36.738Z,4.00
2018-09-30T07:13:04.451Z,2.20
2018-09-30T07:15:33.232Z,3.00
2018-09-30T07:18:02.787Z,1.00
2018-09-30T07:20:30.563Z,1.80
2018-09-30T07:23:00.339Z,3.20
2018-09-30T07:25:29.167Z,3.20
2018-09-30T07:27:56.804Z,2.20
2018-09-30T07:30:24.405Z,4.00
2018-09-30T07:32:53.398Z,1.00
2018-09-30T07:35:21.764Z,3.00
2018-09-30T07:37:49.698Z,3.40
2018-09-30T07:40:18.646Z,5.60
2018-09-30T07:42:47.321Z,5.20
2018-09-30T07:45:15.486Z,3.60
2018-09-30T07:47:43.867Z,4.00
2018-09-30T07:50:12.366Z,4.80
2018-09-30T07:52:40.005Z,0.00
2018-09-30T07:55:07.890Z,2.60
2018-09-30T07:57:37.362Z,3.00
2018-09-30T08:00:04.892Z,3.40
2018-09-30T08:02:33.678Z,3.00
2018-09-30T08:05:04.838Z,4.80
2018-09-30T08:07:32.537Z,1.00
2018-09-30T08:10:00.477Z,3.20
2018-09-30T08:12:28.685Z,3.00
2018-09-30T08:14:56.211Z,2.20
2018-09-30T08:17:25.616Z,3.00
2018-09-30T08:19:53.984Z,3.60
2018-09-30T08:22:22.505Z,3.00
2018-09-30T08:24:55.699Z,1.00
2018-09-30T08:27:24.278Z,3.40
2018-09-30T08:29:52.177Z,3.40
2018-09-30T08:32:21.283Z,3.00
2018-09-30T08:34:51.277Z,3.40
2018-09-30T08:38:23.588Z,1.80
2018-09-30T08:40:56.630Z,2.20
2018-09-30T08:43:24.342Z,3.40
2018-09-30T08:45:54.261Z,3.40
2018-09-30T08:48:21.838Z,3.00
2018-09-30T08:50:50.606Z,1.80
2018-09-30T08:53:18.520Z,1.40
2018-09-30T08:55:46.191Z,2.60
2018-09-30T08:58:14.734Z,2.60
2018-09-30T09:00:44.303Z,0.40
2018-09-30T09:03:12.923Z,3.80
2018-09-30T09:05:41.454Z,3.80
2018-09-30T09:08:10.622Z,4.00
2018-09-30T09:10:39.329Z,3.00
2018-09-30T09:13:06.899Z,3.60
2018-09-30T09:15:34.973Z,3.80
2018-09-30T09:18:02.571Z,3.00
2018-09-30T09:20:30.126Z,0.60
2018-09-30T09:22:58.050Z,2.20
2018-09-30T09:25:25.962Z,3.00
2018-09-30T09:27:53.544Z,0.00
2018-09-30T09:30:23.359Z,1.00
2018-09-30T09:32:50.919Z,1.00
2018-09-30T09:35:18.448Z,1.00
2018-09-30T09:37:46.459Z,0.00
2018-09-30T09:40:14.988Z,0.00
2018-09-30T09:42:43.338Z,0.00
2018-09-30T09:45:15.295Z,0.80
2018-09-30T09:47:44.757Z,1.00
2018-09-30T09:50:12.304Z,1.00
2018-09-30T09:52:42.819Z,0.60
2018-09-30T09:55:11.299Z,0.00
2018-09-30T09:57:40.256Z,0.00
2018-09-30T10:00:08.081Z,0.00
2018-09-30T10:02:35.723Z,0.40
2018-09-30T10:05:05.095Z,1.20
2018-09-30T10:07:34.681Z,1.00
2018-09-30T10:10:04.796Z,0.00
2018-09-30T10:12:35.157Z,1.00
2018-09-30T10:15:03.086Z,1.00
2018-09-30T10:17:32.743Z,1.00
2018-09-30T10:20:00.302Z,1.20
2018-09-30T10:22:30.716Z,1.00
2018-09-30T10:25:02.592Z,1.00
2018-09-30T10:27:30.169Z,2.00
2018-09-30T10:29:59.218Z,1.00
2018-09-30T10:32:38.556Z,2.00
2018-09-30T10:35:09.641Z,1.60
2018-09-30T10:37:37.483Z,1.80
2018-09-30T10:40:07.653Z,2.00
2018-09-30T10:42:35.663Z,1.00
2018-09-30T10:45:05.297Z,1.40
2018-09-30T10:47:35.313Z,0.00
2018-09-30T10:50:05.483Z,1.00
2018-09-30T10:52:33.904Z,0.00
2018-09-30T10:55:01.478Z,1.00
2018-09-30T10:57:29.430Z,1.00
2018-09-30T10:59:57.027Z,1.00
2018-09-30T11:02:25.503Z,1.00
2018-09-30T11:04:54.805Z,1.40
2018-09-30T11:07:23.454Z,2.60
2018-09-30T11:09:51.459Z,1.40
2018-09-30T11:12:20.410Z,1.20
2018-09-30T11:14:49.691Z,1.60
2018-09-30T11:17:18.308Z,1.00
2018-09-30T11:19:45.837Z,2.00
2018-09-30T11:22:15.163Z,2.00
2018-09-30T11:24:43.073Z,2.20
2018-09-30T11:27:11.122Z,1.60
2018-09-30T11:29:38.676Z,2.60
2018-09-30T11:32:06.667Z,1.80
2018-09-30T11:34:41.167Z,1.60
2018-09-30T11:37:10.126Z,2.00
2018-09-30T11:39:38.863Z,1.60
2018-09-30T11:42:10.096Z,2.00
2018-09-30T11:44:41.199Z,2.80
2018-09-30T11:47:09.235Z,1.00
2018-09-30T11:49:38.426Z,2.00
2018-09-30T11:52:08.793Z,1.20
2018-09-30T11:54:38.260Z,2.80
2018-09-30T11:57:06.573Z,2.20
2018-09-30T11:59:34.916Z,2.40
2018-09-30T12:02:02.817Z,2.00
2018-09-30T12:04:31.168Z,1.40
2018-09-30T12:06:58.705Z,1.60
2018-09-30T12:09:26.582Z,3.40
2018-09-30T12:11:56.577Z,2.00
2018-09-30T12:14:24.836Z,2.00
2018-09-30T12:16:55.646Z,0.20
2018-09-30T12:19:25.082Z,1.00
2018-09-30T12:21:53.632Z,1.80
2018-09-30T12:24:24.539Z,1.80
2018-09-30T12:26:52.111Z,1.40
2018-09-30T12:29:23.405Z,1.00
2018-09-30T12:31:51.285Z,2.00
2018-09-30T12:34:22.245Z,0.00
2018-09-30T12:36:52.924Z,0.00
2018-09-30T12:39:21.394Z,1.00
2018-09-30T12:41:50.798Z,0.20
2018-09-30T12:44:19.986Z,1.00
2018-09-30T12:46:48.701Z,1.00
2018-09-30T12:49:16.322Z,1.00
2018-09-30T12:51:44.603Z,1.60
2018-09-30T12:54:14.293Z,0.20
2018-09-30T12:56:41.855Z,0.80
2018-09-30T12:59:10.343Z,1.20
2018-09-30T13:01:39.921Z,1.40
2018-09-30T13:04:07.476Z,0.00
2018-09-30T13:06:36.882Z,1.80
2018-09-30T13:09:11.571Z,1.00
2018-09-30T13:11:43.730Z,1.00
2018-09-30T13:14:11.877Z,1.00
2018-09-30T13:16:40.558Z,1.00
2018-09-30T13:19:08.140Z,1.00
2018-09-30T13:21:37.294Z,1.40
2018-09-30T13:24:07.739Z,1.00
2018-09-30T13:26:39.221Z,1.00
2018-09-30T13:29:07.821Z,2.20
2018-09-30T13:31:37.706Z,1.00
2018-09-30T13:34:05.286Z,0.00
2018-09-30T13:36:33.563Z,1.00
2018-09-30T13:39:02.251Z,1.80
2018-09-30T13:41:30.786Z,1.00
2018-09-30T13:43:58.484Z,1.00
2018-09-30T13:46:26.390Z,1.00
2018-09-30T13:48:53.981Z,1.00
2018-09-30T13:51:25.174Z,1.00
2018-09-30T13:53:54.446Z,1.00
2018-09-30T13:56:21.991Z,0.80
2018-09-30T13:58:49.525Z,1.00
2018-09-30T14:01:17.530Z,1.00
2018-09-30T14:03:46.386Z,0.60
2018-09-30T14:06:16.121Z,1.20
2018-09-30T14:08:45.217Z,1.00
2018-09-30T14:11:13.378Z,1.00
2018-09-30T14:13:41.889Z,1.00
2018-09-30T14:16:11.910Z,0.00
2018-09-30T14:18:41.042Z,1.00
2018-09-30T14:21:10.856Z,0.00
2018-09-30T14:23:40.723Z,1.00
2018-09-30T14:26:08.303Z,0.80
2018-09-30T14:28:36.487Z,0.60
2018-09-30T14:31:08.767Z,1.00
2018-09-30T14:36:14.797Z,1.00
2018-09-30T14:38:44.270Z,0.40
2018-09-30T14:41:13.051Z,0.80
2018-09-30T14:43:43.225Z,1.00
2018-09-30T14:46:10.802Z,1.00
2018-09-30T14:48:39.364Z,0.20
2018-09-30T14:51:08.054Z,0.40
2018-09-30T14:53:35.762Z,1.00
2018-09-30T14:56:05.767Z,0.60
2018-09-30T14:58:35.422Z,1.00
2018-09-30T15:01:03.796Z,0.00
2018-09-30T15:03:31.399Z,1.00
2018-09-30T15:06:00.190Z,1.00
2018-09-30T15:08:31.017Z,1.20
2018-09-30T15:11:00.543Z,0.80
2018-09-30T15:13:29.109Z,1.00
2018-09-30T15:15:59.349Z,0.60
2018-09-30T15:18:29.064Z,1.00
2018-09-30T15:20:56.624Z,0.80
2018-09-30T15:23:24.386Z,0.40
2018-09-30T15:25:53.071Z,0.20
2018-09-30T15:28:21.152Z,1.00
2018-09-30T15:30:57.428Z,0.00
2018-09-30T15:33:29.209Z,0.20
2018-09-30T15:35:58.121Z,0.40
2018-09-30T15:38:26.370Z,1.00
2018-09-30T15:40:54.232Z,0.00
2018-09-30T15:43:22.543Z,1.00
2018-09-30T15:45:50.086Z,1.00
2018-09-30T15:48:24.585Z,1.00
2018-09-30T15:50:53.321Z,0.40
2018-09-30T15:53:21.977Z,1.00
2018-09-30T15:55:49.574Z,0.80
2018-09-30T15:58:18.872Z,0.60
2018-09-30T16:00:48.611Z,1.00
2018-09-30T16:03:18.410Z,1.00
2018-09-30T16:05:45.987Z,1.00
2018-09-30T16:08:18.532Z,1.00
2018-09-30T16:10:46.559Z,1.00
2018-09-30T16:13:15.864Z,1.00
2018-09-30T16:15:46.879Z,1.00
2018-09-30T16:18:15.296Z,1.40
2018-09-30T16:20:46.532Z,1.40
2018-09-30T16:23:14.584Z,2.20
2018-09-30T16:25:43.188Z,1.40
2018-09-30T16:28:12.602Z,1.00
2018-09-30T16:30:45.296Z,0.00
2018-09-30T16:33:14.014Z,1.00
2018-09-30T16:35:44.322Z,1.80
2018-09-30T16:38:13.238Z,1.80
2018-09-30T16:40:43.189Z,3.40
2018-09-30T16:43:13.438Z,4.00
2018-09-30T16:45:44.232Z,4.40
2018-09-30T16:50:49.212Z,4.80
2018-09-30T16:53:20.443Z,3.40
2018-09-30T16:55:48.729Z,4.00
2018-09-30T16:58:18.613Z,3.60
2018-09-30T17:00:46.602Z,3.20
2018-09-30T17:03:14.223Z,4.00
2018-09-30T17:05:42.776Z,3.00
2018-09-30T17:08:13.403Z,3.00
2018-09-30T17:10:41.235Z,3.00
2018-09-30T17:13:10.970Z,3.00
2018-09-30T17:15:39.678Z,3.00
2018-09-30T17:18:08.232Z,4.80
2018-09-30T17:20:39.482Z,3.20
2018-09-30T17:23:09.759Z,6.00
2018-09-30T17:25:39.274Z,3.80
2018-09-30T17:28:17.639Z,12.00
2018-09-30T17:30:49.326Z,14.80
2018-09-30T17:33:20.220Z,10.80
2018-09-30T17:35:50.133Z,9.60
2018-09-30T17:38:18.705Z,3.80
2018-09-30T17:40:46.391Z,6.60
2018-09-30T17:43:16.581Z,6.20
2018-09-30T17:45:45.258Z,5.60
2018-09-30T17:48:14.247Z,7.20
2018-09-30T17:50:46.546Z,5.20
2018-09-30T17:53:18.461Z,6.60
2018-09-30T17:55:46.294Z,7.00
2018-09-30T17:58:15.603Z,3.00
2018-09-30T18:00:45.522Z,6.00
2018-09-30T18:03:14.299Z,7.00
2018-09-30T18:05:44.961Z,6.00
2018-09-30T18:08:15.357Z,6.80
2018-09-30T18:10:42.923Z,5.60
2018-09-30T18:13:16.930Z,6.80
2018-09-30T18:18:32.451Z,7.00
2018-09-30T18:21:02.527Z,3.60
2018-09-30T18:23:31.338Z,0.00
2018-09-30T18:26:01.219Z,4.00
2018-09-30T18:28:28.784Z,4.00
2018-09-30T18:30:58.444Z,4.00
2018-09-30T18:33:30.306Z,6.00
2018-09-30T18:36:02.220Z,6.00
2018-09-30T18:38:30.483Z,3.00
2018-09-30T18:40:58.772Z,3.40
2018-09-30T18:43:27.750Z,3.20
2018-09-30T18:45:56.545Z,3.60
2018-09-30T18:48:26.183Z,6.80
2018-09-30T18:50:54.506Z,3.00
2018-09-30T18:53:22.567Z,4.00
2018-09-30T18:55:54.081Z,3.20
2018-09-30T18:58:22.184Z,3.80
2018-09-30T19:00:55.852Z,1.00
2018-09-30T19:03:25.428Z,3.60
2018-09-30T19:05:53.773Z,2.60
2018-09-30T19:08:30.561Z,4.00
2018-09-30T19:11:02.008Z,3.60
2018-09-30T19:13:32.771Z,4.00
2018-09-30T19:16:02.472Z,3.00
2018-09-30T19:18:30.778Z,6.00
2018-09-30T19:21:06.357Z,3.20
2018-09-30T19:23:36.231Z,3.80
2018-09-30T19:26:03.835Z,4.40
2018-09-30T19:28:37.608Z,3.80
2018-09-30T19:31:09.025Z,0.00
2018-09-30T19:33:37.427Z,4.00
2018-09-30T19:36:07.800Z,3.60
2018-09-30T19:38:35.386Z,4.80
2018-09-30T19:41:04.694Z,3.80
2018-09-30T19:43:36.494Z,7.40
2018-09-30T19:46:05.956Z,4.00
2018-09-30T19:48:35.527Z,4.80
2018-09-30T19:51:03.553Z,4.00
2018-09-30T19:53:31.361Z,4.20
2018-09-30T19:56:00.650Z,3.40
2018-09-30T19:58:28.563Z,3.40
2018-09-30T20:00:57.889Z,4.00
2018-09-30T20:03:29.000Z,4.80
2018-09-30T20:06:04.632Z,4.40
2018-09-30T20:08:32.842Z,3.00
2018-09-30T20:11:00.409Z,3.80
2018-09-30T20:13:29.223Z,3.60
2018-09-30T20:15:57.662Z,4.80
2018-09-30T20:18:25.904Z,4.00
2018-09-30T20:20:55.040Z,2.60
2018-09-30T20:23:22.566Z,4.00
2018-09-30T20:25:50.095Z,4.40
2018-09-30T20:28:18.069Z,6.00
2018-09-30T20:30:45.638Z,4.00
2018-09-30T20:33:13.458Z,4.00
2018-09-30T20:35:51.615Z,3.80
2018-09-30T20:38:20.845Z,4.00
2018-09-30T20:40:48.538Z,3.20
2018-09-30T20:43:17.120Z,3.40
2018-09-30T20:45:44.625Z,4.40
2018-09-30T20:48:17.030Z,4.00
2018-09-30T20:50:45.570Z,4.80
2018-09-30T20:53:13.230Z,2.60
2018-09-30T20:55:43.392Z,4.00
2018-09-30T20:58:15.793Z,2.60
2018-09-30T21:00:43.425Z,3.60
2018-09-30T21:03:13.797Z,4.00
2018-09-30T21:05:48.291Z,4.00
2018-09-30T21:08:17.951Z,4.00
2018-09-30T21:10:46.502Z,3.00
2018-09-30T21:13:16.551Z,3.00
2018-09-30T21:15:45.039Z,4.40
2018-09-30T21:18:13.446Z,4.00
2018-09-30T21:20:43.269Z,4.00
2018-09-30T21:23:10.815Z,3.40
2018-09-30T21:25:38.346Z,3.80
2018-09-30T21:28:06.397Z,4.00
2018-09-30T21:30:37.105Z,4.80
2018-09-30T21:33:07.728Z,7.40
2018-09-30T21:35:38.758Z,1.00
2018-09-30T21:38:07.959Z,4.40
2018-09-30T21:40:37.280Z,4.40
2018-09-30T21:43:09.167Z,5.20
2018-09-30T21:45:37.342Z,4.00
2018-09-30T21:48:05.550Z,5.60
2018-09-30T21:50:33.571Z,6.00
2018-09-30T21:53:01.094Z,3.20
2018-09-30T21:55:28.662Z,3.80
2018-09-30T21:57:56.541Z,3.80
2018-09-30T22:00:29.305Z,3.80
2018-09-30T22:02:56.842Z,3.00
2018-09-30T22:05:25.259Z,6.00
2018-09-30T22:07:56.809Z,3.80
2018-09-30T22:10:24.470Z,4.80
2018-09-30T22:12:52.374Z,6.00
2018-09-30T22:15:20.043Z,0.00
2018-09-30T22:17:51.842Z,6.40
2018-09-30T22:20:20.622Z,4.00
2018-09-30T22:22:50.146Z,6.20
2018-09-30T22:25:18.359Z,3.20
2018-09-30T22:27:46.621Z,3.60
2018-09-30T22:30:16.189Z,7.00
2018-09-30T22:32:43.860Z,6.20
2018-09-30T22:35:11.928Z,6.20
2018-09-30T22:37:39.457Z,9.00
2018-09-30T22:40:07.436Z,4.40
2018-09-30T22:42:35.386Z,4.40
2018-09-30T22:45:05.088Z,4.40
2018-09-30T22:47:32.644Z,6.00
2018-09-30T22:50:12.355Z,6.00
2018-09-30T22:52:40.935Z,6.00
2018-09-30T22:55:08.630Z,6.80
2018-09-30T22:57:36.531Z,4.40
2018-09-30T23:00:04.088Z,6.20
2018-09-30T23:02:31.617Z,6.20
2018-09-30T23:04:59.507Z,6.20
2018-09-30T23:07:27.091Z,6.20
2018-09-30T23:09:54.695Z,7.80
2018-09-30T23:12:25.278Z,9.20
2018-09-30T23:14:52.875Z,10.00
2018-09-30T23:17:21.060Z,7.00
2018-09-30T23:19:49.544Z,9.80
2018-09-30T23:22:17.089Z,9.20
2018-09-30T23:24:44.649Z,9.00
2018-09-30T23:27:12.554Z,12.40
2018-09-30T23:29:40.319Z,12.00
2018-09-30T23:32:08.549Z,11.60
2018-09-30T23:34:36.527Z,10.00
2018-09-30T23:37:04.084Z,9.60
2018-09-30T23:39:31.642Z,11.60
2018-09-30T23:42:00.596Z,10.00
2018-09-30T23:44:28.172Z,10.00
2018-09-30T23:46:56.250Z,9.00
2018-09-30T23:49:23.818Z,11.80
2018-09-30T23:51:51.827Z,8.60
2018-09-30T23:54:19.398Z,10.00
2018-09-30T23:56:46.979Z,11.20
2018-09-30T23:59:14.602Z,7.40
